createdAt,value
2023-05-17T00:00:36.274Z,1005.1
2023-05-17T00:01:57.387Z,1005.1
2023-05-17T00:03:17.515Z,1005.1
2023-05-17T00:04:38.631Z,1005.1
2023-05-17T00:05:59.739Z,1005.1
2023-05-17T00:07:20.834Z,1005.1
2023-05-17T00:08:41.956Z,1005.1
2023-05-17T00:10:03.063Z,1005.1
2023-05-17T00:11:24.168Z,1005.2
2023-05-17T00:12:45.268Z,1005.2
2023-05-17T00:14:06.372Z,1005.2
2023-05-17T00:15:27.493Z,1005.2
2023-05-17T00:16:48.586Z,1005.2
2023-05-17T00:18:09.690Z,1005.2
2023-05-17T00:19:30.797Z,1005.2
2023-05-17T00:20:50.926Z,1005.2
2023-05-17T00:22:12.041Z,1005.2
2023-05-17T00:23:33.144Z,1005.2
2023-05-17T00:24:54.258Z,1005.2
2023-05-17T00:26:15.363Z,1005.2
2023-05-17T00:27:36.462Z,1005.2
2023-05-17T00:28:57.580Z,1005.2
2023-05-17T00:30:18.694Z,1005.2
2023-05-17T00:31:39.801Z,1005.2
2023-05-17T00:33:00.910Z,1005.2
2023-05-17T00:34:22.013Z,1005.2
2023-05-17T00:49:42.987Z,1005.2
2023-05-17T01:05:03.962Z,1005.2
2023-05-17T01:20:23.931Z,1005.3
2023-05-17T01:35:44.922Z,1005.4
2023-05-17T01:51:05.880Z,1005.5
2023-05-17T02:06:26.856Z,1005.6
2023-05-17T02:21:47.799Z,1005.6
2023-05-17T02:37:08.738Z,1005.5
2023-05-17T02:52:29.667Z,1005.6
2023-05-17T03:07:50.598Z,1005.7
2023-05-17T03:23:11.520Z,1005.8
2023-05-17T03:38:32.448Z,1006
2023-05-17T03:53:53.355Z,1006.2
2023-05-17T04:09:14.300Z,1006.3
2023-05-17T04:24:35.229Z,1006.4
2023-05-17T04:39:55.181Z,1006.5
2023-05-17T04:55:16.098Z,1006.5
2023-05-17T05:10:37.038Z,1006.6
2023-05-17T05:25:57.959Z,1006.7
2023-05-17T05:41:18.900Z,1006.8
2023-05-17T05:56:39.828Z,1006.9
2023-05-17T06:12:00.757Z,1007.1
2023-05-17T06:27:21.694Z,1007.1
2023-05-17T06:42:42.616Z,1007.3
2023-05-17T06:58:03.549Z,1007.5
2023-05-17T07:13:24.461Z,1007.6
2023-05-17T07:14:45.536Z,1007.7
2023-05-17T07:16:06.627Z,1007.7
2023-05-17T07:17:26.716Z,1007.7
2023-05-17T07:18:47.780Z,1007.7
2023-05-17T07:20:08.868Z,1007.7
2023-05-17T07:21:29.933Z,1007.6
2023-05-17T07:22:51.022Z,1007.7
2023-05-17T07:24:12.074Z,1007.7
2023-05-17T07:25:33.158Z,1007.7
2023-05-17T07:26:54.221Z,1007.7
2023-05-17T07:28:15.308Z,1007.7
2023-05-17T07:29:36.380Z,1007.7
2023-05-17T07:30:57.456Z,1007.7
2023-05-17T07:32:18.514Z,1007.7
2023-05-17T07:33:39.589Z,1007.7
2023-05-17T07:34:59.663Z,1007.7
2023-05-17T07:36:20.723Z,1007.7
2023-05-17T07:37:41.809Z,1007.7
2023-05-17T07:39:02.899Z,1007.7
2023-05-17T07:40:23.969Z,1007.7
2023-05-17T07:41:45.043Z,1007.6
2023-05-17T07:43:06.112Z,1007.6
2023-05-17T07:44:27.194Z,1007.6
2023-05-17T07:45:48.278Z,1007.6
2023-05-17T07:47:09.354Z,1007.5
2023-05-17T07:48:30.411Z,1007.6
2023-05-17T07:49:51.502Z,1007.6
2023-05-17T07:51:12.595Z,1007.6
2023-05-17T07:52:32.686Z,1007.6
2023-05-17T07:53:53.766Z,1007.6
2023-05-17T07:55:14.825Z,1007.6
2023-05-17T07:56:35.913Z,1007.7
2023-05-17T07:57:56.980Z,1007.7
2023-05-17T07:59:18.058Z,1007.7
2023-05-17T08:00:39.121Z,1007.8
2023-05-17T08:02:00.227Z,1007.8
2023-05-17T08:03:21.274Z,1007.8
2023-05-17T08:04:42.364Z,1007.8
2023-05-17T08:06:03.440Z,1007.8
2023-05-17T08:07:24.508Z,1007.8
2023-05-17T08:08:45.595Z,1007.7
2023-05-17T08:10:05.689Z,1007.7
2023-05-17T08:11:26.762Z,1007.7
2023-05-17T08:12:47.839Z,1007.7
2023-05-17T08:14:08.903Z,1007.8
2023-05-17T08:15:29.974Z,1007.8
2023-05-17T08:16:51.050Z,1007.8
2023-05-17T08:18:12.124Z,1007.8
2023-05-17T08:19:33.210Z,1007.8
2023-05-17T08:20:54.285Z,1007.8
2023-05-17T08:22:15.347Z,1007.8
2023-05-17T08:23:36.412Z,1007.8
2023-05-17T08:24:57.467Z,1007.8
2023-05-17T08:26:18.551Z,1007.9
2023-05-17T08:27:38.647Z,1007.9
2023-05-17T08:28:59.748Z,1007.8
2023-05-17T08:30:20.796Z,1007.8
2023-05-17T08:31:41.889Z,1007.8
2023-05-17T08:33:02.978Z,1007.8
2023-05-17T08:34:24.054Z,1007.9
2023-05-17T08:35:44.129Z,1007.9
2023-05-17T08:37:05.198Z,1007.9
2023-05-17T08:38:26.273Z,1008
2023-05-17T08:39:47.000Z,1008
2023-05-17T08:41:08.396Z,1008
2023-05-17T08:42:29.463Z,1008
2023-05-17T08:43:50.523Z,1008.1
2023-05-17T08:45:11.589Z,1008
2023-05-17T08:46:32.660Z,1008
2023-05-17T08:47:53.738Z,1008.1
2023-05-17T08:49:14.819Z,1008.1
2023-05-17T08:50:35.873Z,1008.1
2023-05-17T08:51:56.936Z,1008.1
2023-05-17T08:53:17.025Z,1008.1
2023-05-17T08:54:38.064Z,1008.1
2023-05-17T08:55:59.148Z,1008.1
2023-05-17T08:57:20.214Z,1008.1
2023-05-17T08:58:41.273Z,1008.2
2023-05-17T09:00:02.360Z,1008.2
2023-05-17T09:01:23.436Z,1008.2
2023-05-17T09:02:44.508Z,1008.2
2023-05-17T09:04:05.568Z,1008.2
2023-05-17T09:05:26.635Z,1008.1
2023-05-17T09:06:47.694Z,1008.1
2023-05-17T09:08:08.770Z,1008.1
2023-05-17T09:09:29.823Z,1008.2
2023-05-17T09:12:10.976Z,1008.1
2023-05-17T09:13:32.038Z,1008.1
2023-05-17T09:14:53.132Z,1008.1
2023-05-17T09:16:14.183Z,1008.1
2023-05-17T09:17:35.256Z,1008.1
2023-05-17T09:18:56.316Z,1008.1
2023-05-17T09:20:17.402Z,1008
2023-05-17T09:21:38.445Z,1008.1
2023-05-17T09:24:20.605Z,1008
2023-05-17T09:25:41.639Z,1008.1
2023-05-17T09:27:02.725Z,1008.1
2023-05-17T09:28:22.805Z,1008.1
2023-05-17T09:29:43.884Z,1008
2023-05-17T09:31:04.945Z,1008.1
2023-05-17T09:32:25.990Z,1008.1
2023-05-17T09:33:47.071Z,1008.1
2023-05-17T09:35:08.150Z,1008.1
2023-05-17T09:36:29.208Z,1008.1
2023-05-17T09:37:50.281Z,1008.1
2023-05-17T09:39:11.343Z,1008.1
2023-05-17T09:40:32.407Z,1008.1
2023-05-17T09:41:53.485Z,1008.1
2023-05-17T09:43:14.538Z,1008
2023-05-17T09:44:35.601Z,1008
2023-05-17T09:45:55.684Z,1008
2023-05-17T09:47:16.782Z,1008.1
2023-05-17T09:48:37.839Z,1008.1
2023-05-17T09:49:58.921Z,1008
2023-05-17T09:51:19.991Z,1008.1
2023-05-17T09:52:41.040Z,1008
2023-05-17T09:54:02.126Z,1008.1
2023-05-17T09:55:23.192Z,1008.1
2023-05-17T09:56:44.272Z,1008.1
2023-05-17T09:59:26.390Z,1008.1
2023-05-17T10:00:47.480Z,1008.1
2023-05-17T10:02:08.570Z,1008.1
2023-05-17T10:03:28.661Z,1008.1
2023-05-17T10:04:49.723Z,1008.2
2023-05-17T10:06:10.787Z,1008.2
2023-05-17T10:07:31.860Z,1008.2
2023-05-17T10:08:52.926Z,1008.2
2023-05-17T10:10:13.987Z,1008.2
2023-05-17T10:11:35.047Z,1008.2
2023-05-17T10:12:56.139Z,1008.2
2023-05-17T10:14:17.213Z,1008.2
2023-05-17T10:15:38.264Z,1008.3
2023-05-17T10:16:59.342Z,1008.3
2023-05-17T10:18:20.000Z,1008.3
2023-05-17T10:19:41.465Z,1008.3
2023-05-17T10:21:01.532Z,1008.3
2023-05-17T10:22:22.629Z,1008.3
2023-05-17T10:23:43.691Z,1008.4
2023-05-17T10:25:04.758Z,1008.3
2023-05-17T10:26:25.840Z,1008.4
2023-05-17T10:27:46.921Z,1008.4
2023-05-17T10:29:08.004Z,1008.3
2023-05-17T10:30:29.060Z,1008.4
2023-05-17T10:31:50.145Z,1008.4
2023-05-17T10:33:11.213Z,1008.4
2023-05-17T10:34:32.275Z,1008.4
2023-05-17T10:35:53.357Z,1008.4
2023-05-17T10:37:14.415Z,1008.4
2023-05-17T10:38:35.614Z,1008.5
2023-05-17T10:39:56.664Z,1008.6
2023-05-17T10:41:17.716Z,1008.5
2023-05-17T10:42:38.793Z,1008.5
2023-05-17T10:43:59.884Z,1008.5
2023-05-17T10:45:20.966Z,1008.5
2023-05-17T10:46:42.032Z,1008.5
2023-05-17T10:48:03.107Z,1008.5
2023-05-17T10:49:24.140Z,1008.5
2023-05-17T10:50:45.234Z,1008.5
2023-05-17T10:52:06.303Z,1008.5
2023-05-17T10:53:27.374Z,1008.5
2023-05-17T10:54:48.432Z,1008.5
2023-05-17T10:56:08.534Z,1008.5
2023-05-17T10:57:29.607Z,1008.5
2023-05-17T10:58:50.000Z,1008.5
2023-05-17T11:00:11.744Z,1008.6
2023-05-17T11:01:32.807Z,1008.5
2023-05-17T11:02:53.889Z,1008.5
2023-05-17T11:04:14.943Z,1008.5
2023-05-17T11:05:36.010Z,1008.5
2023-05-17T11:06:57.080Z,1008.5
2023-05-17T11:09:39.219Z,1008.5
2023-05-17T11:11:00.295Z,1008.4
2023-05-17T11:12:21.367Z,1008.4
2023-05-17T11:13:41.450Z,1008.4
2023-05-17T11:15:02.504Z,1008.4
2023-05-17T11:16:23.552Z,1008.4
2023-05-17T11:17:44.636Z,1008.4
2023-05-17T11:19:05.712Z,1008.4
2023-05-17T11:20:26.000Z,1008.4
2023-05-17T11:21:47.833Z,1008.4
2023-05-17T11:23:08.924Z,1008.4
2023-05-17T11:24:29.996Z,1008.4
2023-05-17T11:25:51.064Z,1008.3
2023-05-17T11:27:12.134Z,1008.4
2023-05-17T11:28:33.202Z,1008.4
2023-05-17T11:29:54.000Z,1008.4
2023-05-17T11:31:15.460Z,1008.4
2023-05-17T11:32:36.000Z,1008.3
2023-05-17T11:33:57.568Z,1008.3
2023-05-17T11:35:18.654Z,1008.3
2023-05-17T11:36:39.698Z,1008.3
2023-05-17T11:38:00.787Z,1008.3
2023-05-17T11:39:21.840Z,1008.3
2023-05-17T11:40:42.916Z,1008.3
2023-05-17T11:42:03.955Z,1008.3
2023-05-17T11:43:25.059Z,1008.4
2023-05-17T11:44:46.117Z,1008.4
2023-05-17T11:46:07.155Z,1008.4
2023-05-17T11:47:28.255Z,1008.4
2023-05-17T11:48:48.332Z,1008.4
2023-05-17T11:50:09.392Z,1008.4
2023-05-17T11:51:30.472Z,1008.4
2023-05-17T11:52:51.502Z,1008.4
2023-05-17T11:54:12.569Z,1008.4
2023-05-17T11:55:33.647Z,1008.4
2023-05-17T11:56:54.726Z,1008.3
2023-05-17T11:58:15.769Z,1008.3
2023-05-17T11:59:36.867Z,1008.3
2023-05-17T12:00:57.944Z,1008.3
2023-05-17T12:02:19.007Z,1008.3
2023-05-17T12:03:40.050Z,1008.3
2023-05-17T12:05:01.137Z,1008.4
2023-05-17T12:06:21.224Z,1008.4
2023-05-17T12:07:42.263Z,1008.4
2023-05-17T12:09:03.363Z,1008.4
2023-05-17T12:10:24.400Z,1008.4
2023-05-17T12:11:45.516Z,1008.4
2023-05-17T12:13:06.577Z,1008.4
2023-05-17T12:14:27.668Z,1008.4
2023-05-17T12:15:48.727Z,1008.4
2023-05-17T12:17:09.807Z,1008.3
2023-05-17T12:18:30.864Z,1008.3
2023-05-17T12:19:51.961Z,1008.3
2023-05-17T12:21:13.029Z,1008.3
2023-05-17T12:22:34.106Z,1008.3
2023-05-17T12:23:54.162Z,1008.3
2023-05-17T12:25:15.278Z,1008.2
2023-05-17T12:26:36.349Z,1008.2
2023-05-17T12:27:57.437Z,1008.2
2023-05-17T12:29:18.470Z,1008.2
2023-05-17T12:30:39.532Z,1008.3
2023-05-17T12:32:00.625Z,1008.3
2023-05-17T12:33:21.689Z,1008.3
2023-05-17T12:34:42.768Z,1008.3
2023-05-17T12:36:03.842Z,1008.3
2023-05-17T12:37:24.899Z,1008.3
2023-05-17T12:38:45.965Z,1008.2
2023-05-17T12:40:07.041Z,1008.2
2023-05-17T12:41:27.096Z,1008.2
2023-05-17T12:42:48.210Z,1008.2
2023-05-17T12:44:09.261Z,1008.2
2023-05-17T12:45:30.313Z,1008.2
2023-05-17T12:46:51.403Z,1008.2
2023-05-17T12:48:12.496Z,1008.2
2023-05-17T12:49:33.553Z,1008.2
2023-05-17T12:50:54.641Z,1008.2
2023-05-17T12:52:15.708Z,1008.2
2023-05-17T12:53:36.760Z,1008.1
2023-05-17T12:54:57.856Z,1008.1
2023-05-17T12:56:18.926Z,1008.1
2023-05-17T12:57:40.010Z,1008.1
2023-05-17T12:59:00.082Z,1008.1
2023-05-17T13:00:21.155Z,1008.2
2023-05-17T13:01:42.227Z,1008.2
2023-05-17T13:03:03.289Z,1008.2
2023-05-17T13:04:24.369Z,1008.2
2023-05-17T13:05:45.440Z,1008.2
2023-05-17T13:07:05.530Z,1008.3
2023-05-17T13:08:26.589Z,1008.2
2023-05-17T13:09:47.655Z,1008.2
2023-05-17T13:11:08.722Z,1008.3
2023-05-17T13:12:29.796Z,1008.3
2023-05-17T13:13:50.862Z,1008.3
2023-05-17T13:15:11.919Z,1008.3
2023-05-17T13:16:32.983Z,1008.3
2023-05-17T13:17:54.085Z,1008.3
2023-05-17T13:19:15.145Z,1008.2
2023-05-17T13:20:36.234Z,1008.2
2023-05-17T13:21:57.303Z,1008.2
2023-05-17T13:23:18.378Z,1008.1
2023-05-17T13:24:38.474Z,1008.2
2023-05-17T13:25:59.548Z,1008.2
2023-05-17T13:27:20.625Z,1008.1
2023-05-17T13:28:41.707Z,1008.2
2023-05-17T13:30:02.764Z,1008.2
2023-05-17T13:31:23.836Z,1008.2
2023-05-17T13:32:44.900Z,1008.2
2023-05-17T13:34:05.982Z,1008.1
2023-05-17T13:35:27.046Z,1008.2
2023-05-17T13:36:48.122Z,1008.2
2023-05-17T13:38:09.187Z,1008.2
2023-05-17T13:39:30.247Z,1008.2
2023-05-17T13:40:51.337Z,1008.2
2023-05-17T13:42:11.412Z,1008.2
2023-05-17T13:43:32.485Z,1008.2
2023-05-17T13:44:53.548Z,1008.1
2023-05-17T13:46:14.630Z,1008.2
2023-05-17T13:47:35.704Z,1008.2
2023-05-17T13:48:56.805Z,1008.3
2023-05-17T13:50:17.851Z,1008.3
2023-05-17T13:51:38.924Z,1008.3
2023-05-17T13:52:59.975Z,1008.3
2023-05-17T13:54:21.079Z,1008.3
2023-05-17T13:55:42.150Z,1008.3
2023-05-17T13:57:03.225Z,1008.3
2023-05-17T13:58:24.291Z,1008.3
2023-05-17T13:59:44.339Z,1008.3
2023-05-17T14:01:05.439Z,1008.3
2023-05-17T14:02:26.507Z,1008.3
2023-05-17T14:03:47.578Z,1008.3
2023-05-17T14:05:08.666Z,1008.3
2023-05-17T14:06:29.733Z,1008.4
2023-05-17T14:07:50.805Z,1008.3
2023-05-17T14:09:11.883Z,1008.3
2023-05-17T14:10:32.923Z,1008.3
2023-05-17T14:11:53.999Z,1008.3
2023-05-17T14:13:15.093Z,1008.3
2023-05-17T14:14:36.183Z,1008.3
2023-05-17T14:15:57.251Z,1008.3
2023-05-17T14:17:17.320Z,1008.3
2023-05-17T14:18:38.370Z,1008.3
2023-05-17T14:19:59.434Z,1008.3
2023-05-17T14:21:20.535Z,1008.3
2023-05-17T14:22:41.606Z,1008.3
2023-05-17T14:24:02.691Z,1008.3
2023-05-17T14:25:23.744Z,1008.3
2023-05-17T14:26:44.821Z,1008.3
2023-05-17T14:28:05.851Z,1008.3
2023-05-17T14:29:26.944Z,1008.3
2023-05-17T14:30:48.029Z,1008.3
2023-05-17T14:32:09.090Z,1008.3
2023-05-17T14:33:30.163Z,1008.3
2023-05-17T14:34:50.240Z,1008.3
2023-05-17T14:36:11.305Z,1008.3
2023-05-17T14:37:32.382Z,1008.3
2023-05-17T14:38:53.450Z,1008.3
2023-05-17T14:40:14.518Z,1008.4
2023-05-17T14:41:35.583Z,1008.4
2023-05-17T14:42:56.655Z,1008.4
2023-05-17T14:44:17.726Z,1008.5
2023-05-17T14:45:38.751Z,1008.5
2023-05-17T14:46:59.867Z,1008.5
2023-05-17T14:48:20.928Z,1008.5
2023-05-17T14:49:41.955Z,1008.6
2023-05-17T14:51:03.061Z,1008.5
2023-05-17T14:52:23.139Z,1008.5
2023-05-17T14:53:44.214Z,1008.5
2023-05-17T14:55:05.274Z,1008.6
2023-05-17T14:56:26.334Z,1008.6
2023-05-17T14:57:47.411Z,1008.6
2023-05-17T14:59:08.475Z,1008.6
2023-05-17T15:00:29.543Z,1008.6
2023-05-17T15:01:50.618Z,1008.6
2023-05-17T15:03:11.683Z,1008.6
2023-05-17T15:04:32.761Z,1008.6
2023-05-17T15:05:53.805Z,1008.6
2023-05-17T15:07:14.874Z,1008.6
2023-05-17T15:08:35.979Z,1008.6
2023-05-17T15:09:56.055Z,1008.6
2023-05-17T15:11:17.120Z,1008.6
2023-05-17T15:12:38.200Z,1008.6
2023-05-17T15:13:59.227Z,1008.5
2023-05-17T15:15:20.335Z,1008.5
2023-05-17T15:16:41.389Z,1008.5
2023-05-17T15:18:02.468Z,1008.6
2023-05-17T15:19:23.519Z,1008.6
2023-05-17T15:20:44.594Z,1008.5
2023-05-17T15:22:05.632Z,1008.5
2023-05-17T15:23:26.729Z,1008.5
2023-05-17T15:24:47.809Z,1008.5
2023-05-17T15:26:08.885Z,1008.5
2023-05-17T15:27:28.967Z,1008.5
2023-05-17T15:28:50.034Z,1008.5
2023-05-17T15:30:11.105Z,1008.5
2023-05-17T15:31:32.175Z,1008.6
2023-05-17T15:32:53.227Z,1008.6
2023-05-17T15:34:14.315Z,1008.6
2023-05-17T15:35:35.380Z,1008.6
2023-05-17T15:36:56.449Z,1008.6
2023-05-17T15:38:17.516Z,1008.5
2023-05-17T15:39:38.588Z,1008.5
2023-05-17T15:40:59.649Z,1008.5
2023-05-17T15:42:20.709Z,1008.5
2023-05-17T15:43:41.788Z,1008.5
2023-05-17T15:45:01.864Z,1008.5
2023-05-17T15:46:22.942Z,1008.5
2023-05-17T15:47:44.003Z,1008.5
2023-05-17T15:49:05.055Z,1008.5
2023-05-17T15:50:26.140Z,1008.5
2023-05-17T15:51:47.207Z,1008.5
2023-05-17T15:53:08.259Z,1008.4
2023-05-17T15:54:29.338Z,1008.4
2023-05-17T15:55:50.402Z,1008.4
2023-05-17T15:57:11.471Z,1008.4
2023-05-17T15:59:53.608Z,1008.4
2023-05-17T16:01:14.665Z,1008.4
2023-05-17T16:02:34.738Z,1008.3
2023-05-17T16:03:55.813Z,1008.4
2023-05-17T16:05:16.885Z,1008.3
2023-05-17T16:06:37.907Z,1008.3
2023-05-17T16:07:59.022Z,1008.3
2023-05-17T16:09:20.074Z,1008.4
2023-05-17T16:10:41.152Z,1008.3
2023-05-17T16:12:02.226Z,1008.3
2023-05-17T16:13:23.280Z,1008.3
2023-05-17T16:14:44.362Z,1008.3
2023-05-17T16:16:05.417Z,1008.3
2023-05-17T16:17:26.498Z,1008.3
2023-05-17T16:18:47.526Z,1008.3
2023-05-17T16:20:07.645Z,1008.3
2023-05-17T16:21:28.685Z,1008.3
2023-05-17T16:22:49.785Z,1008.4
2023-05-17T16:24:10.857Z,1008.4
2023-05-17T16:25:31.927Z,1008.4
2023-05-17T16:26:52.964Z,1008.4
2023-05-17T16:28:14.057Z,1008.4
2023-05-17T16:29:35.121Z,1008.4
2023-05-17T16:30:56.185Z,1008.4
2023-05-17T16:32:17.256Z,1008.4
2023-05-17T16:33:38.321Z,1008.4
2023-05-17T16:34:59.388Z,1008.5
2023-05-17T16:36:20.449Z,1008.5
2023-05-17T16:37:40.515Z,1008.5
2023-05-17T16:39:01.618Z,1008.4
2023-05-17T16:40:22.684Z,1008.4
2023-05-17T16:41:43.733Z,1008.5
2023-05-17T16:43:04.804Z,1008.5
2023-05-17T16:44:25.881Z,1008.5
2023-05-17T16:45:46.945Z,1008.5
2023-05-17T16:47:08.000Z,1008.5
2023-05-17T16:48:29.077Z,1008.5
2023-05-17T16:49:50.142Z,1008.5
2023-05-17T16:51:11.215Z,1008.5
2023-05-17T16:52:32.236Z,1008.5
2023-05-17T16:53:53.301Z,1008.5
2023-05-17T16:55:13.429Z,1008.5
2023-05-17T16:56:34.493Z,1008.5
2023-05-17T16:57:55.553Z,1008.6
2023-05-17T16:59:16.625Z,1008.5
2023-05-17T17:00:37.696Z,1008.6
2023-05-17T17:01:58.758Z,1008.6
2023-05-17T17:03:19.813Z,1008.6
2023-05-17T17:04:40.895Z,1008.6
2023-05-17T17:06:01.924Z,1008.6
2023-05-17T17:07:23.039Z,1008.6
2023-05-17T17:08:44.107Z,1008.6
2023-05-17T17:10:05.168Z,1008.7
2023-05-17T17:11:26.240Z,1008.7
2023-05-17T17:12:46.305Z,1008.7
2023-05-17T17:14:07.339Z,1008.7
2023-05-17T17:15:28.444Z,1008.7
2023-05-17T17:16:49.509Z,1008.6
2023-05-17T17:18:10.584Z,1008.6
2023-05-17T17:19:31.642Z,1008.6
2023-05-17T17:20:52.701Z,1008.6
2023-05-17T17:22:13.783Z,1008.6
2023-05-17T17:23:34.807Z,1008.6
2023-05-17T17:24:55.911Z,1008.6
2023-05-17T17:26:16.984Z,1008.7
2023-05-17T17:27:38.048Z,1008.7
2023-05-17T17:28:59.108Z,1008.7
2023-05-17T17:30:19.197Z,1008.7
2023-05-17T17:31:40.270Z,1008.7
2023-05-17T17:33:01.334Z,1008.7
2023-05-17T17:34:22.389Z,1008.7
2023-05-17T17:35:43.472Z,1008.7
2023-05-17T17:37:04.535Z,1008.7
2023-05-17T17:38:24.000Z,1008.7
2023-05-17T17:39:45.691Z,1008.7
2023-05-17T17:41:06.754Z,1008.7
2023-05-17T17:42:27.789Z,1008.7
2023-05-17T17:43:48.878Z,1008.7
2023-05-17T17:45:09.947Z,1008.7
2023-05-17T17:46:31.010Z,1008.8
2023-05-17T17:47:52.086Z,1008.8
2023-05-17T17:49:13.145Z,1008.8
2023-05-17T17:50:34.222Z,1008.8
2023-05-17T17:51:55.292Z,1008.9
2023-05-17T17:53:16.362Z,1008.9
2023-05-17T17:54:37.416Z,1008.9
2023-05-17T17:55:57.509Z,1008.9
2023-05-17T17:57:18.571Z,1008.9
2023-05-17T17:58:39.636Z,1008.9
2023-05-17T18:00:00.712Z,1008.9
2023-05-17T18:01:21.783Z,1008.9
2023-05-17T18:02:42.857Z,1008.9
2023-05-17T18:04:03.917Z,1009
2023-05-17T18:05:24.974Z,1009
2023-05-17T18:06:46.020Z,1009
2023-05-17T18:08:07.082Z,1009
2023-05-17T18:10:49.248Z,1009
2023-05-17T18:12:10.296Z,1009.1
2023-05-17T18:13:30.408Z,1009.1
2023-05-17T18:14:51.428Z,1009.1
2023-05-17T18:16:12.528Z,1009.1
2023-05-17T18:17:33.612Z,1009.1
2023-05-17T18:18:54.670Z,1009.1
2023-05-17T18:20:15.737Z,1009.1
2023-05-17T18:21:36.811Z,1009.1
2023-05-17T18:22:57.837Z,1009.1
2023-05-17T18:24:18.933Z,1009.2
2023-05-17T18:25:40.004Z,1009.2
2023-05-17T18:27:01.073Z,1009.2
2023-05-17T18:28:22.106Z,1009.2
2023-05-17T18:29:43.219Z,1009.2
2023-05-17T18:31:03.293Z,1009.2
2023-05-17T18:32:24.330Z,1009.3
2023-05-17T18:33:45.417Z,1009.3
2023-05-17T18:35:06.457Z,1009.3
2023-05-17T18:36:27.554Z,1009.3
2023-05-17T18:37:48.618Z,1009.3
2023-05-17T18:39:09.651Z,1009.3
2023-05-17T18:40:30.721Z,1009.3
2023-05-17T18:41:51.832Z,1009.3
2023-05-17T18:43:12.887Z,1009.3
2023-05-17T18:44:33.956Z,1009.4
2023-05-17T18:45:55.018Z,1009.4
2023-05-17T18:47:16.098Z,1009.4
2023-05-17T18:48:37.245Z,1009.4
2023-05-17T18:51:19.401Z,1009.4
2023-05-17T18:52:40.439Z,1009.5
2023-05-17T18:54:01.549Z,1009.5
2023-05-17T18:55:22.624Z,1009.5
2023-05-17T18:56:43.674Z,1009.5
2023-05-17T18:58:04.753Z,1009.5
2023-05-17T18:59:25.814Z,1009.5
2023-05-17T19:00:46.840Z,1009.6
2023-05-17T19:02:07.943Z,1009.6
2023-05-17T19:03:28.979Z,1009.6
2023-05-17T19:04:50.086Z,1009.6
2023-05-17T19:06:10.159Z,1009.6
2023-05-17T19:07:31.216Z,1009.6
2023-05-17T19:08:52.289Z,1009.7
2023-05-17T19:10:13.361Z,1009.7
2023-05-17T19:11:34.432Z,1009.7
2023-05-17T19:12:55.483Z,1009.7
2023-05-17T19:15:37.595Z,1009.7
2023-05-17T19:16:58.696Z,1009.7
2023-05-17T19:18:19.774Z,1009.8
2023-05-17T19:19:40.834Z,1009.8
2023-05-17T19:21:01.903Z,1009.8
2023-05-17T19:22:22.963Z,1009.8
2023-05-17T19:23:43.054Z,1009.8
2023-05-17T19:25:04.116Z,1009.8
2023-05-17T19:26:25.230Z,1009.8
2023-05-17T19:27:46.303Z,1009.9
2023-05-17T19:29:07.379Z,1009.9
2023-05-17T19:30:28.473Z,1009.9
2023-05-17T19:31:49.586Z,1009.9
2023-05-17T19:33:10.663Z,1009.9
2023-05-17T19:34:31.719Z,1009.9
2023-05-17T19:35:52.801Z,1009.9
2023-05-17T19:37:13.907Z,1009.9
2023-05-17T19:38:35.006Z,1009.9
2023-05-17T19:39:56.120Z,1010
2023-05-17T19:41:16.247Z,1010
2023-05-17T19:42:37.356Z,1010
2023-05-17T19:43:58.476Z,1010
2023-05-17T19:45:19.578Z,1010
2023-05-17T19:46:40.686Z,1010
2023-05-17T19:48:01.800Z,1010.1
2023-05-17T19:49:22.915Z,1010.1
2023-05-17T19:50:44.023Z,1010.1
2023-05-17T19:52:05.133Z,1010.1
2023-05-17T19:53:26.232Z,1010.1
2023-05-17T19:54:47.348Z,1010.1
2023-05-17T19:56:08.427Z,1010.1
2023-05-17T19:57:29.578Z,1010.1
2023-05-17T19:58:49.695Z,1010.2
2023-05-17T20:00:10.822Z,1010.2
2023-05-17T20:01:31.932Z,1010.2
2023-05-17T20:02:53.032Z,1010.2
2023-05-17T20:04:14.146Z,1010.2
2023-05-17T20:05:35.266Z,1010.2
2023-05-17T20:06:56.377Z,1010.2
2023-05-17T20:08:17.473Z,1010.2
2023-05-17T20:09:38.578Z,1010.2
2023-05-17T20:10:59.704Z,1010.3
2023-05-17T20:12:20.798Z,1010.3
2023-05-17T20:13:41.923Z,1010.3
2023-05-17T20:15:03.030Z,1010.3
2023-05-17T20:16:23.154Z,1010.3
2023-05-17T20:17:44.255Z,1010.3
2023-05-17T20:19:05.368Z,1010.3
2023-05-17T20:20:26.480Z,1010.3
2023-05-17T20:21:47.588Z,1010.3
2023-05-17T20:23:08.709Z,1010.3
2023-05-17T20:24:29.806Z,1010.3
2023-05-17T20:25:50.926Z,1010.4
2023-05-17T20:27:12.033Z,1010.4
2023-05-17T20:28:33.149Z,1010.4
2023-05-17T20:29:54.248Z,1010.4
2023-05-17T20:31:15.358Z,1010.4
2023-05-17T20:32:36.469Z,1010.4
2023-05-17T20:33:56.606Z,1010.4
2023-05-17T20:35:17.712Z,1010.4
2023-05-17T20:36:38.807Z,1010.4
2023-05-17T20:37:59.917Z,1010.4
2023-05-17T20:39:21.047Z,1010.4
2023-05-17T20:40:42.125Z,1010.4
2023-05-17T20:42:03.223Z,1010.4
2023-05-17T20:43:24.337Z,1010.4
2023-05-17T20:44:45.461Z,1010.4
2023-05-17T20:46:06.558Z,1010.4
2023-05-17T20:47:27.670Z,1010.4
2023-05-17T20:48:48.782Z,1010.4
2023-05-17T20:50:09.900Z,1010.5
2023-05-17T20:51:30.002Z,1010.5
2023-05-17T20:54:12.219Z,1010.5
2023-05-17T20:55:33.337Z,1010.5
2023-05-17T20:56:54.458Z,1010.5
2023-05-17T20:58:15.552Z,1010.5
2023-05-17T20:59:36.676Z,1010.5
2023-05-17T21:00:57.789Z,1010.4
2023-05-17T21:02:18.893Z,1010.4
2023-05-17T21:03:40.011Z,1010.4
2023-05-17T21:05:01.107Z,1010.4
2023-05-17T21:06:22.220Z,1010.4
2023-05-17T21:07:43.341Z,1010.4
2023-05-17T21:09:03.461Z,1010.4
2023-05-17T21:10:24.576Z,1010.5
2023-05-17T21:11:45.671Z,1010.5
2023-05-17T21:13:06.791Z,1010.5
2023-05-17T21:14:27.890Z,1010.5
2023-05-17T21:15:49.013Z,1010.5
2023-05-17T21:17:10.117Z,1010.5
2023-05-17T21:18:31.213Z,1010.5
2023-05-17T21:19:52.336Z,1010.5
2023-05-17T21:21:13.452Z,1010.5
2023-05-17T21:22:34.558Z,1010.5
2023-05-17T21:23:55.676Z,1010.5
2023-05-17T21:25:16.786Z,1010.5
2023-05-17T21:26:36.897Z,1010.5
2023-05-17T21:27:58.016Z,1010.5
2023-05-17T21:29:19.111Z,1010.5
2023-05-17T21:30:40.225Z,1010.5
2023-05-17T21:32:01.338Z,1010.5
2023-05-17T21:33:22.451Z,1010.5
2023-05-17T21:34:43.541Z,1010.5
2023-05-17T21:36:04.648Z,1010.5
2023-05-17T21:37:25.766Z,1010.5
2023-05-17T21:38:46.864Z,1010.5
2023-05-17T21:40:07.985Z,1010.5
2023-05-17T21:41:29.081Z,1010.5
2023-05-17T21:42:50.187Z,1010.5
2023-05-17T21:44:10.329Z,1010.5
2023-05-17T21:45:31.430Z,1010.5
2023-05-17T21:46:52.543Z,1010.5
2023-05-17T21:48:13.656Z,1010.6
2023-05-17T21:49:34.753Z,1010.6
2023-05-17T21:50:55.852Z,1010.6
2023-05-17T21:52:16.984Z,1010.5
2023-05-17T21:53:38.093Z,1010.5
2023-05-17T21:54:59.182Z,1010.6
2023-05-17T21:56:20.295Z,1010.6
2023-05-17T21:57:41.415Z,1010.6
2023-05-17T21:59:02.516Z,1010.6
2023-05-17T22:00:23.623Z,1010.6
2023-05-17T22:01:43.754Z,1010.6
2023-05-17T22:03:04.856Z,1010.6
2023-05-17T22:04:25.970Z,1010.6
2023-05-17T22:05:47.078Z,1010.6
2023-05-17T22:07:08.162Z,1010.6
2023-05-17T22:08:29.282Z,1010.6
2023-05-17T22:09:49.429Z,1010.6
2023-05-17T22:11:10.532Z,1010.6
2023-05-17T22:12:31.642Z,1010.6
2023-05-17T22:13:52.758Z,1010.6
2023-05-17T22:15:13.861Z,1010.6
2023-05-17T22:16:34.971Z,1010.6
2023-05-17T22:17:56.086Z,1010.6
2023-05-17T22:19:17.190Z,1010.6
2023-05-17T22:20:38.294Z,1010.6
2023-05-17T22:21:59.399Z,1010.6
2023-05-17T22:23:20.509Z,1010.6
2023-05-17T22:24:41.631Z,1010.6
2023-05-17T22:26:02.728Z,1010.7
2023-05-17T22:27:22.865Z,1010.7
2023-05-17T22:28:43.958Z,1010.7
2023-05-17T22:30:05.065Z,1010.7
2023-05-17T22:31:26.174Z,1010.7
2023-05-17T22:32:47.290Z,1010.7
2023-05-17T22:34:08.402Z,1010.7
2023-05-17T22:35:29.499Z,1010.7
2023-05-17T22:36:50.608Z,1010.7
2023-05-17T22:38:11.729Z,1010.8
2023-05-17T22:39:32.827Z,1010.8
2023-05-17T22:40:53.943Z,1010.8
2023-05-17T22:42:15.044Z,1010.8
2023-05-17T22:43:36.156Z,1010.8
2023-05-17T22:44:56.000Z,1010.8
2023-05-17T22:46:17.406Z,1010.8
2023-05-17T22:47:38.498Z,1010.8
2023-05-17T22:48:59.623Z,1010.8
2023-05-17T22:50:20.725Z,1010.9
2023-05-17T22:51:41.837Z,1010.9
2023-05-17T22:53:02.947Z,1010.9
2023-05-17T22:54:24.046Z,1010.9
2023-05-17T22:55:45.160Z,1010.9
2023-05-17T22:57:06.263Z,1010.9
2023-05-17T22:58:27.368Z,1010.9
2023-05-17T22:59:48.493Z,1010.9
2023-05-17T23:01:09.599Z,1010.9
2023-05-17T23:02:29.714Z,1010.9
2023-05-17T23:03:50.822Z,1010.9
2023-05-17T23:05:11.922Z,1010.9
2023-05-17T23:06:33.047Z,1010.9
2023-05-17T23:07:54.148Z,1010.9
2023-05-17T23:09:15.259Z,1010.9